Time;durP1;ratioP1;P1;durP2;ratioP2;P2;SDS_P1;SDS_P2;PMS_P1;PMS_P2;Temp;Humidity;BMP_temperature;BMP_pressure;BME280_temperature;BME280_humidity;BME280_pressure;Samples;Min_cycle;Max_cycle;Signal;HPM_P1;HPM_P2
2022/04/16 00:00:20;;;;;;;;;;;;;;;16.39;59.47;102892.78;1049023;28;1606;-63
2022/04/16 00:01:10;;;;;;;;;;;;;;;16.39;59.18;102892.78;1049703;28;644;-63
2022/04/16 00:02:01;;;;;;;;;;;;;;;16.38;59.41;102891.06;1050261;28;606;-62
2022/04/16 00:02:51;;;;;;;;;;;;;;;16.37;59.53;102890.19;1050157;28;660;-62
2022/04/16 00:03:42;;;;;;;;;;;;;;;16.38;59.28;102896.44;1050277;28;621;-62
2022/04/16 00:04:33;;;;;;;;;;;;;;;16.37;59.34;102889.31;1049903;28;680;-61
2022/04/16 00:05:23;;;;;;;;;;;;;;;16.37;59.30;102902.78;1049947;28;704;-63
2022/04/16 00:06:14;;;;;;;;;;;;;;;16.37;59.30;102897.41;1050226;28;680;-62
2022/04/16 00:07:04;;;;;;;;;;;;;;;16.36;59.30;102901.03;1050110;28;812;-62
2022/04/16 00:08:07;;;;;;;;;;;;;;;16.36;59.49;102892.97;1050152;28;685;-62
2022/04/16 00:08:57;;;;;;;;;;;;;;;16.35;59.35;102889.41;1050066;28;684;-62
2022/04/16 00:09:48;;;;;;;;;;;;;;;16.33;59.46;102897.56;1050182;28;749;-62
2022/04/16 00:10:39;;;;;;;;;;;;;;;16.33;58.82;102894.88;1050186;28;673;-62
2022/04/16 00:11:30;;;;;;;;;;;;;;;16.35;59.17;102896.59;1050250;28;613;-62
2022/04/16 00:12:20;;;;;;;;;;;;;;;16.33;59.38;102902.94;1048983;28;781;-64
2022/04/16 00:13:11;;;;;;;;;;;;;;;16.32;59.10;102903.91;1050164;28;1979;-62
2022/04/16 00:14:03;;;;;;;;;;;;;;;16.31;59.38;102896.78;1050087;28;664;-62
2022/04/16 00:14:54;;;;;;;;;;;;;;;16.31;59.32;102901.28;1050217;28;735;-62
2022/04/16 00:15:44;;;;;;;;;;;;;;;16.30;59.40;102900.41;1049782;28;719;-61
2022/04/16 00:16:35;;;;;;;;;;;;;;;16.29;59.60;102904.09;1050182;28;759;-62
2022/04/16 00:17:25;;;;;;;;;;;;;;;16.29;59.45;102906.78;1050039;28;645;-62
2022/04/16 00:18:15;;;;;;;;;;;;;;;16.29;59.18;102897.84;1050127;28;680;-62
2022/04/16 00:19:08;;;;;;;;;;;;;;;16.29;59.31;102900.53;1050143;28;705;-62
2022/04/16 00:20:02;;;;;;;;;;;;;;;16.28;59.27;102893.41;1048432;28;673;-62
2022/04/16 00:20:53;;;;;;;;;;;;;;;16.27;59.23;102900.63;1050097;28;674;-62
2022/04/16 00:21:44;;;;;;;;;;;;;;;16.29;59.31;102895.16;1050197;28;783;-62
2022/04/16 00:22:34;;;;;;;;;;;;;;;16.27;59.05;102895.25;1048929;28;678;-61
2022/04/16 00:23:26;;;;;;;;;;;;;;;16.28;59.02;102896.09;1049451;28;625;-61
2022/04/16 00:24:16;;;;;;;;;;;;;;;16.28;59.38;102893.41;1048419;28;680;-62
2022/04/16 00:25:07;;;;;;;;;;;;;;;16.27;59.14;102892.56;1049544;28;707;-62
2022/04/16 00:25:58;;;;;;;;;;;;;;;16.28;58.93;102893.41;1050066;28;686;-62
2022/04/16 00:26:50;;;;;;;;;;;;;;;16.25;59.56;102891.75;1048172;28;751;-62
2022/04/16 00:27:40;;;;;;;;;;;;;;;16.25;58.86;102889.06;1048145;28;669;-62
2022/04/16 00:28:31;;;;;;;;;;;;;;;16.27;59.23;102894.38;1049893;28;693;-62
2022/04/16 00:29:21;;;;;;;;;;;;;;;16.26;59.06;102898.88;1050494;28;1661;-62
2022/04/16 00:30:12;;;;;;;;;;;;;;;16.26;59.21;102893.50;1048424;28;1747;-62
2022/04/16 00:31:02;;;;;;;;;;;;;;;16.26;59.05;102896.19;1048409;28;1654;-62
2022/04/16 00:31:52;;;;;;;;;;;;;;;16.25;58.87;102897.16;1045917;28;788;-62
2022/04/16 00:32:44;;;;;;;;;;;;;;;16.25;59.35;102897.16;1046025;28;613;-62
2022/04/16 00:33:34;;;;;;;;;;;;;;;16.26;59.18;102903.41;1045975;28;610;-62
2022/04/16 00:34:24;;;;;;;;;;;;;;;16.25;59.23;102896.28;1049825;28;688;-61
2022/04/16 00:35:15;;;;;;;;;;;;;;;16.24;59.43;102895.41;1049857;28;684;-62
2022/04/16 00:36:05;;;;;;;;;;;;;;;16.25;59.16;102896.28;1045964;28;696;-62
2022/04/16 00:36:56;;;;;;;;;;;;;;;16.24;59.09;102900.78;1046560;28;703;-61
2022/04/16 00:37:46;;;;;;;;;;;;;;;16.25;58.99;102898.97;1045916;28;679;-61
2022/04/16 00:38:37;;;;;;;;;;;;;;;16.25;59.01;102902.53;1046053;28;669;-61
2022/04/16 00:39:27;;;;;;;;;;;;;;;16.25;59.07;102902.53;1046585;28;664;-62
2022/04/16 00:40:18;;;;;;;;;;;;;;;16.24;58.87;102905.28;1045991;28;665;-63
2022/04/16 00:41:08;;;;;;;;;;;;;;;16.23;59.08;102899.03;1045289;28;662;-62
2022/04/16 00:41:58;;;;;;;;;;;;;;;16.24;59.00;102905.28;1045867;28;609;-63
2022/04/16 00:42:50;;;;;;;;;;;;;;;16.23;59.17;102912.50;1046524;28;703;-62
2022/04/16 00:43:40;;;;;;;;;;;;;;;16.23;59.03;102906.25;1045357;28;646;-62
2022/04/16 00:44:31;;;;;;;;;;;;;;;16.22;58.50;102907.19;1046552;28;705;-62
2022/04/16 00:45:22;;;;;;;;;;;;;;;16.21;59.20;102900.09;1045920;28;644;-62
2022/04/16 00:46:12;;;;;;;;;;;;;;;16.21;58.84;102905.47;1046028;28;680;-62
2022/04/16 00:47:04;;;;;;;;;;;;;;;16.21;58.95;102903.63;1049630;28;635;-62
2022/04/16 00:47:55;;;;;;;;;;;;;;;16.20;59.23;102903.72;1049833;28;638;-61
2022/04/16 00:48:45;;;;;;;;;;;;;;;16.20;58.88;102907.28;1046398;28;716;-62
2022/04/16 00:49:36;;;;;;;;;;;;;;;16.20;58.92;102904.59;1046549;28;705;-62
2022/04/16 00:50:26;;;;;;;;;;;;;;;16.19;58.70;102905.53;1045974;28;726;-62
2022/04/16 00:51:17;;;;;;;;;;;;;;;16.19;58.71;102905.53;1049462;28;657;-62
2022/04/16 00:52:08;;;;;;;;;;;;;;;16.18;58.99;102905.63;1049754;28;699;-63
2022/04/16 00:52:58;;;;;;;;;;;;;;;16.17;58.86;102904.75;1049718;28;641;-62
2022/04/16 00:53:49;;;;;;;;;;;;;;;16.17;58.99;102910.13;1050077;28;685;-62
2022/04/16 00:54:39;;;;;;;;;;;;;;;16.15;59.03;102906.66;1047121;28;663;-62
2022/04/16 00:55:30;;;;;;;;;;;;;;;16.15;58.88;102903.97;1049943;28;687;-63
2022/04/16 00:56:20;;;;;;;;;;;;;;;16.14;59.05;102901.38;1049781;28;627;-63
2022/04/16 00:57:10;;;;;;;;;;;;;;;16.14;58.80;102904.94;1049658;28;649;-62
2022/04/16 00:58:01;;;;;;;;;;;;;;;16.13;59.02;102908.56;1050026;28;704;-63
2022/04/16 00:58:51;;;;;;;;;;;;;;;16.12;58.88;102901.44;1049924;28;646;-63
2022/04/16 00:59:42;;;;;;;;;;;;;;;16.12;59.02;102906.81;1044134;28;681;-63
2022/04/16 01:00:32;;;;;;;;;;;;;;;16.12;58.92;102898.75;1045387;28;626;-63
2022/04/16 01:01:23;;;;;;;;;;;;;;;16.11;58.92;102906.94;1046024;28;738;-63
2022/04/16 01:02:13;;;;;;;;;;;;;;;16.10;58.84;102906.06;1050370;28;708;-63
2022/04/16 01:03:03;;;;;;;;;;;;;;;16.10;58.82;102906.06;1050504;28;677;-64
2022/04/16 01:03:54;;;;;;;;;;;;;;;16.10;58.77;102902.50;1046816;28;657;-64
2022/04/16 01:04:44;;;;;;;;;;;;;;;16.09;59.09;102908.84;1046017;28;633;-64
2022/04/16 01:05:37;;;;;;;;;;;;;;;16.09;59.24;102907.03;1049843;28;859;-63
2022/04/16 01:06:28;;;;;;;;;;;;;;;16.09;59.00;102906.16;1050300;28;731;-64
2022/04/16 01:07:18;;;;;;;;;;;;;;;16.08;58.82;102899.91;1045832;28;692;-62
2022/04/16 01:08:08;;;;;;;;;;;;;;;16.07;58.79;102906.22;1049461;28;677;-63
2022/04/16 01:09:00;;;;;;;;;;;;;;;16.08;58.89;102907.09;1053910;28;758;-63
2022/04/16 01:09:50;;;;;;;;;;;;;;;16.06;58.90;102901.81;1053903;28;657;-63
2022/04/16 01:10:41;;;;;;;;;;;;;;;16.06;58.84;102901.81;1050104;28;621;-63
2022/04/16 01:11:34;;;;;;;;;;;;;;;16.05;58.83;102900.06;1049902;28;668;-63
2022/04/16 01:12:26;;;;;;;;;;;;;;;16.06;58.71;102911.69;1049439;28;663;-63
2022/04/16 01:13:18;;;;;;;;;;;;;;;16.05;58.89;102909.97;1049351;28;1882;-63
2022/04/16 01:14:09;;;;;;;;;;;;;;;16.05;58.94;102908.13;1049371;28;633;-64
2022/04/16 01:14:59;;;;;;;;;;;;;;;16.05;58.99;102909.97;1049340;28;689;-63
2022/04/16 01:15:50;;;;;;;;;;;;;;;16.04;58.92;102911.78;1049857;28;642;-63
2022/04/16 01:16:40;;;;;;;;;;;;;;;16.03;58.82;102901.97;1049960;28;697;-64
2022/04/16 01:17:31;;;;;;;;;;;;;;;16.04;58.73;102911.78;1049371;28;632;-63
2022/04/16 01:18:21;;;;;;;;;;;;;;;16.05;58.77;102912.66;1049958;28;662;-61
2022/04/16 01:19:12;;;;;;;;;;;;;;;16.03;58.71;102907.34;1049423;28;764;-62
2022/04/16 01:20:03;;;;;;;;;;;;;;;16.03;58.86;102911.84;1049947;28;767;-62
2022/04/16 01:20:54;;;;;;;;;;;;;;;16.03;58.48;102917.25;1049893;28;711;-61
2022/04/16 01:21:46;;;;;;;;;;;;;;;16.02;58.86;102916.38;1049413;28;677;-60
2022/04/16 01:22:36;;;;;;;;;;;;;;;16.02;58.85;102923.56;1053717;28;676;-61
2022/04/16 01:23:26;;;;;;;;;;;;;;;16.01;58.46;102920.00;1053931;28;633;-61
2022/04/16 01:24:17;;;;;;;;;;;;;;;16.01;58.44;102917.31;1050103;28;588;-61
2022/04/16 01:25:10;;;;;;;;;;;;;;;16.00;58.57;102915.59;1049971;28;633;-61
2022/04/16 01:26:02;;;;;;;;;;;;;;;15.99;58.42;102913.84;1049909;28;870;-61
2022/04/16 01:26:52;;;;;;;;;;;;;;;15.98;58.64;102915.66;1049400;28;713;-61
2022/04/16 01:27:48;;;;;;;;;;;;;;;15.98;58.81;102925.56;1049962;28;679;-61
2022/04/16 01:28:40;;;;;;;;;;;;;;;15.97;58.74;102921.13;1053883;28;675;-60
2022/04/16 01:29:30;;;;;;;;;;;;;;;15.96;58.81;102912.19;1046070;28;596;-61
2022/04/16 01:30:21;;;;;;;;;;;;;;;15.97;58.86;102926.50;1045168;28;665;-61
2022/04/16 01:31:11;;;;;;;;;;;;;;;15.97;58.53;102923.81;1048356;28;1726;-61
2022/04/16 01:32:02;;;;;;;;;;;;;;;15.97;58.50;102918.44;1049323;28;689;-62
2022/04/16 01:32:52;;;;;;;;;;;;;;;15.96;58.81;102917.56;1049158;28;1635;-61
2022/04/16 01:33:43;;;;;;;;;;;;;;;15.97;58.60;102921.13;1049373;28;855;-61
2022/04/16 01:34:33;;;;;;;;;;;;;;;15.97;58.55;102929.19;1049329;28;685;-61
2022/04/16 01:35:24;;;;;;;;;;;;;;;15.96;58.56;102917.56;1049431;28;701;-61
2022/04/16 01:36:14;;;;;;;;;;;;;;;15.97;58.30;102927.38;1049982;28;621;-61
2022/04/16 01:37:05;;;;;;;;;;;;;;;15.97;58.60;102921.13;1048234;28;634;-61
2022/04/16 01:37:55;;;;;;;;;;;;;;;15.97;58.55;102918.44;1049339;28;709;-61
2022/04/16 01:38:46;;;;;;;;;;;;;;;15.95;58.64;102918.50;1048988;28;1698;-62
2022/04/16 01:39:36;;;;;;;;;;;;;;;15.96;58.39;102927.44;1049998;28;628;-63
2022/04/16 01:40:27;;;;;;;;;;;;;;;15.95;58.64;102915.81;1049357;28;653;-63
2022/04/16 01:41:17;;;;;;;;;;;;;;;15.95;58.47;102926.59;1049375;28;622;-63
2022/04/16 01:42:07;;;;;;;;;;;;;;;15.94;58.65;102918.63;1048269;28;764;-63
2022/04/16 01:42:58;;;;;;;;;;;;;;;15.95;58.29;102917.66;1048817;28;677;-63
2022/04/16 01:43:48;;;;;;;;;;;;;;;15.94;58.57;102915.94;1049391;28;629;-63
2022/04/16 01:44:39;;;;;;;;;;;;;;;15.94;58.70;102918.63;1049248;28;702;-63
2022/04/16 01:45:31;;;;;;;;;;;;;;;15.93;58.62;102917.75;1049360;28;622;-64
2022/04/16 01:46:22;;;;;;;;;;;;;;;15.95;58.41;102923.03;1050162;28;696;-63
2022/04/16 01:47:12;;;;;;;;;;;;;;;15.94;58.50;102919.47;1049250;28;629;-62
2022/04/16 01:48:03;;;;;;;;;;;;;;;15.94;58.70;102918.63;1049957;28;613;-63
2022/04/16 01:48:54;;;;;;;;;;;;;;;15.93;58.64;102924.97;1049327;28;721;-62
2022/04/16 01:49:44;;;;;;;;;;;;;;;15.92;58.57;102916.03;1048188;28;675;-62
2022/04/16 01:50:34;;;;;;;;;;;;;;;15.92;58.25;102915.16;1048230;28;1207;-62
2022/04/16 01:51:25;;;;;;;;;;;;;;;15.92;58.73;102920.53;1048184;28;684;-62
2022/04/16 01:52:15;;;;;;;;;;;;;;;15.91;58.43;102926.84;1048782;28;684;-63
2022/04/16 01:53:06;;;;;;;;;;;;;;;15.89;58.24;102918.88;1048674;28;646;-64
2022/04/16 01:53:56;;;;;;;;;;;;;;;15.90;58.38;102917.91;1048768;28;645;-63
2022/04/16 01:54:47;;;;;;;;;;;;;;;15.90;58.61;102922.44;1048198;28;692;-63
2022/04/16 01:55:37;;;;;;;;;;;;;;;15.89;58.24;102920.69;1048753;28;650;-63
2022/04/16 01:56:27;;;;;;;;;;;;;;;15.89;58.31;102921.56;1048351;28;667;-63
2022/04/16 01:57:18;;;;;;;;;;;;;;;15.88;58.46;102919.81;1047632;28;667;-62
2022/04/16 01:58:09;;;;;;;;;;;;;;;15.87;58.41;102914.53;1048274;28;650;-62
2022/04/16 01:59:01;;;;;;;;;;;;;;;15.88;58.35;102913.56;1048728;28;1718;-62
2022/04/16 01:59:52;;;;;;;;;;;;;;;15.87;58.28;102917.22;1046424;28;692;-62
2022/04/16 02:00:43;;;;;;;;;;;;;;;15.86;58.05;102919.03;1045894;28;724;-62
2022/04/16 02:01:34;;;;;;;;;;;;;;;15.85;58.03;102914.59;1045750;28;664;-62
2022/04/16 02:02:25;;;;;;;;;;;;;;;15.85;58.50;102916.41;1049642;28;676;-62
2022/04/16 02:03:15;;;;;;;;;;;;;;;15.84;58.67;102918.25;1049562;28;679;-63
2022/04/16 02:04:07;;;;;;;;;;;;;;;15.84;58.40;102920.94;1045906;28;569;-62
2022/04/16 02:04:58;;;;;;;;;;;;;;;15.84;58.21;102918.25;1045168;28;664;-62
2022/04/16 02:05:49;;;;;;;;;;;;;;;15.85;58.47;102921.78;1045684;28;721;-63
2022/04/16 02:06:40;;;;;;;;;;;;;;;15.84;58.38;102917.38;1046573;28;660;-63
2022/04/16 02:07:30;;;;;;;;;;;;;;;15.82;58.35;102919.28;1046529;28;727;-62
2022/04/16 02:08:21;;;;;;;;;;;;;;;15.83;58.36;102915.63;1046435;28;669;-62
2022/04/16 02:09:11;;;;;;;;;;;;;;;15.82;58.21;102919.28;1046494;28;689;-62
2022/04/16 02:10:01;;;;;;;;;;;;;;;15.81;58.28;102910.34;1046407;28;728;-62
2022/04/16 02:10:52;;;;;;;;;;;;;;;15.81;58.28;102914.84;1046540;28;617;-63
2022/04/16 02:11:42;;;;;;;;;;;;;;;15.79;58.13;102909.53;1045623;28;772;-63
2022/04/16 02:12:33;;;;;;;;;;;;;;;15.79;58.47;102914.06;1046494;28;690;-63
2022/04/16 02:13:23;;;;;;;;;;;;;;;15.80;58.52;102913.09;1046518;28;1922;-63
2022/04/16 02:14:13;;;;;;;;;;;;;;;15.79;58.54;102911.38;1046397;28;724;-62
2022/04/16 02:15:04;;;;;;;;;;;;;;;15.77;58.28;102915.94;1046566;28;610;-63
2022/04/16 02:15:56;;;;;;;;;;;;;;;15.78;58.13;102923.06;1046462;28;701;-63
2022/04/16 02:16:46;;;;;;;;;;;;;;;15.77;58.39;102918.63;1046568;28;873;-63
2022/04/16 02:17:37;;;;;;;;;;;;;;;15.78;58.31;102917.69;1046452;28;727;-63
2022/04/16 02:18:27;;;;;;;;;;;;;;;15.76;58.36;102919.63;1046400;28;651;-63
2022/04/16 02:19:18;;;;;;;;;;;;;;;15.75;58.45;102921.44;1046567;28;628;-63
2022/04/16 02:20:08;;;;;;;;;;;;;;;15.75;58.28;102928.63;1046367;28;677;-63
2022/04/16 02:20:59;;;;;;;;;;;;;;;15.76;58.54;102935.75;1046421;28;655;-63
2022/04/16 02:21:49;;;;;;;;;;;;;;;15.75;58.08;102928.63;1046445;28;617;-62
2022/04/16 02:22:40;;;;;;;;;;;;;;;15.73;58.44;102923.34;1046375;28;705;-63
2022/04/16 02:23:30;;;;;;;;;;;;;;;15.74;58.35;102926.91;1050337;28;637;-62
2022/04/16 02:24:20;;;;;;;;;;;;;;;15.74;58.25;102921.53;1050369;28;619;-62
2022/04/16 02:25:11;;;;;;;;;;;;;;;15.73;58.24;102922.47;1046022;28;609;-62
2022/04/16 02:26:02;;;;;;;;;;;;;;;15.73;58.06;102925.16;1046411;28;634;-62
2022/04/16 02:26:55;;;;;;;;;;;;;;;15.73;58.56;102927.84;1046572;28;704;-62
2022/04/16 02:27:46;;;;;;;;;;;;;;;15.72;58.15;102923.41;1046423;28;673;-62
2022/04/16 02:28:36;;;;;;;;;;;;;;;15.70;58.13;102928.88;1045828;28;572;-63
2022/04/16 02:29:27;;;;;;;;;;;;;;;15.70;58.21;102926.19;1047024;28;677;-62
2022/04/16 02:30:17;;;;;;;;;;;;;;;15.70;58.14;102930.69;1047115;28;640;-63
2022/04/16 02:31:08;;;;;;;;;;;;;;;15.68;58.13;102933.47;1046418;28;669;-62
2022/04/16 02:31:58;;;;;;;;;;;;;;;15.68;58.47;102921.84;1047019;28;628;-64
2022/04/16 02:32:52;;;;;;;;;;;;;;;15.67;58.45;102930.84;1046265;28;626;-63
2022/04/16 02:33:42;;;;;;;;;;;;;;;15.67;58.35;102925.47;1046493;28;732;-63
2022/04/16 02:34:33;;;;;;;;;;;;;;;15.67;58.09;102930.84;1046960;28;664;-62
2022/04/16 02:35:23;;;;;;;;;;;;;;;15.66;58.27;102937.16;1046462;28;629;-62
2022/04/16 02:36:13;;;;;;;;;;;;;;;15.65;58.02;102927.38;1046953;28;587;-62
2022/04/16 02:37:04;;;;;;;;;;;;;;;15.67;58.02;102936.22;1047337;28;1652;-62
2022/04/16 02:37:54;;;;;;;;;;;;;;;15.67;58.28;102936.22;1048930;28;709;-62
2022/04/16 02:38:46;;;;;;;;;;;;;;;15.66;57.96;102937.16;1049958;28;708;-62
2022/04/16 02:39:37;;;;;;;;;;;;;;;15.67;58.11;102928.16;1050505;28;700;-62
2022/04/16 02:40:27;;;;;;;;;;;;;;;15.66;58.15;102931.78;1048985;28;701;-62
2022/04/16 02:41:19;;;;;;;;;;;;;;;15.67;58.21;102933.53;1050231;28;649;-61
2022/04/16 02:42:09;;;;;;;;;;;;;;;15.67;58.01;102930.84;1050549;28;637;-61
2022/04/16 02:43:00;;;;;;;;;;;;;;;15.66;58.12;102929.09;1048667;28;654;-61
2022/04/16 02:43:50;;;;;;;;;;;;;;;15.64;58.18;102931.88;1049869;28;669;-61
2022/04/16 02:47:05;;;;;;;;;;;;;;;15.63;58.08;102931.00;1049918;28;721;-61
2022/04/16 02:47:55;;;;;;;;;;;;;;;15.62;58.41;102931.94;1049898;28;659;-61
2022/04/16 02:48:46;;;;;;;;;;;;;;;15.62;57.81;102929.25;1048883;28;656;-61
2022/04/16 02:49:40;;;;;;;;;;;;;;;15.62;58.20;102933.78;1050206;28;727;-61
2022/04/16 02:50:31;;;;;;;;;;;;;;;15.62;58.44;102937.34;1049880;28;1215;-61
2022/04/16 02:51:21;;;;;;;;;;;;;;;15.61;58.02;102938.28;1047347;28;693;-62
2022/04/16 02:52:12;;;;;;;;;;;;;;;15.61;58.11;102938.28;1049232;28;670;-62
2022/04/16 02:53:02;;;;;;;;;;;;;;;15.61;58.09;102930.22;1049653;28;697;-61
2022/04/16 02:53:53;;;;;;;;;;;;;;;15.59;58.14;102934.81;1049635;28;730;-62
2022/04/16 02:54:43;;;;;;;;;;;;;;;15.60;58.17;102936.53;1050520;28;645;-61
2022/04/16 02:55:33;;;;;;;;;;;;;;;15.59;58.04;102932.09;1048286;28;671;-61
2022/04/16 02:56:24;;;;;;;;;;;;;;;15.59;58.33;102928.56;1049366;28;618;-61
2022/04/16 02:57:14;;;;;;;;;;;;;;;15.58;58.39;102935.78;1049893;28;704;-60
2022/04/16 02:58:05;;;;;;;;;;;;;;;15.58;57.89;102933.09;1049897;28;625;-61
2022/04/16 02:58:55;;;;;;;;;;;;;;;15.57;58.12;102934.03;1049046;28;1734;-61
2022/04/16 02:59:48;;;;;;;;;;;;;;;15.55;57.96;102927.88;1050362;28;681;-61
2022/04/16 03:00:40;;;;;;;;;;;;;;;15.56;57.87;102928.75;1050415;28;702;-61
2022/04/16 03:01:31;;;;;;;;;;;;;;;15.56;58.07;102934.13;1049908;28;741;-62
2022/04/16 03:02:21;;;;;;;;;;;;;;;15.54;58.02;102936.84;1049788;28;654;-62
2022/04/16 03:03:11;;;;;;;;;;;;;;;15.55;58.02;102932.34;1049895;28;701;-62
2022/04/16 03:04:02;;;;;;;;;;;;;;;15.54;57.82;102933.28;1050489;28;676;-62
2022/04/16 03:04:54;;;;;;;;;;;;;;;15.53;57.68;102929.72;1049609;28;629;-62
2022/04/16 03:05:44;;;;;;;;;;;;;;;15.52;58.34;102930.69;1049523;28;658;-62
2022/04/16 03:06:35;;;;;;;;;;;;;;;15.52;58.02;102933.38;1050428;28;645;-62
2022/04/16 03:07:25;;;;;;;;;;;;;;;15.51;58.10;102937.00;1049678;28;1733;-62
2022/04/16 03:08:16;;;;;;;;;;;;;;;15.51;58.21;102939.69;1049826;28;709;-63
2022/04/16 03:09:06;;;;;;;;;;;;;;;15.51;58.15;102930.75;1049257;28;716;-62
2022/04/16 03:09:56;;;;;;;;;;;;;;;15.50;57.85;102937.94;1049292;28;631;-62
2022/04/16 03:10:47;;;;;;;;;;;;;;;15.51;57.98;102942.38;1049557;28;700;-63
2022/04/16 03:11:38;;;;;;;;;;;;;;;15.49;57.97;102936.22;1050085;28;645;-63
2022/04/16 03:12:28;;;;;;;;;;;;;;;15.51;57.99;102937.00;1050456;28;689;-63
2022/04/16 03:13:18;;;;;;;;;;;;;;;15.49;57.88;102938.03;1049740;28;1890;-63
2022/04/16 03:17:37;;;;;;;;;;;;;;;15.47;57.72;102931.84;1050348;28;637;-64
2022/04/16 03:18:27;;;;;;;;;;;;;;;15.47;58.04;102934.56;1050015;28;747;-63
2022/04/16 03:19:17;;;;;;;;;;;;;;;15.45;57.90;102931.94;1049770;28;654;-63
2022/04/16 03:20:09;;;;;;;;;;;;;;;15.45;58.08;102937.31;1049866;28;704;-62
2022/04/16 03:20:59;;;;;;;;;;;;;;;15.44;57.96;102935.56;1049770;28;684;-63
2022/04/16 03:21:49;;;;;;;;;;;;;;;15.43;57.77;102936.53;1050441;28;727;-63
2022/04/16 03:22:40;;;;;;;;;;;;;;;15.44;57.67;102938.25;1049678;28;650;-62
2022/04/16 03:23:30;;;;;;;;;;;;;;;15.43;58.00;102928.47;1049773;28;693;-63
2022/04/16 03:24:21;;;;;;;;;;;;;;;15.43;58.10;102939.22;1049376;28;678;-63
2022/04/16 03:25:11;;;;;;;;;;;;;;;15.41;57.63;102933.03;1049785;28;626;-64
2022/04/16 03:26:01;;;;;;;;;;;;;;;15.42;57.85;102934.78;1049274;28;721;-64
2022/04/16 03:26:53;;;;;;;;;;;;;;;15.43;57.79;102928.47;1049798;28;658;-62
2022/04/16 03:27:43;;;;;;;;;;;;;;;15.42;57.83;102932.09;1049817;28;637;-63
2022/04/16 03:28:34;;;;;;;;;;;;;;;15.41;57.73;102938.41;1049828;28;673;-63
2022/04/16 03:29:24;;;;;;;;;;;;;;;15.41;57.86;102935.72;1048741;28;1476;-63
2022/04/16 03:30:14;;;;;;;;;;;;;;;15.41;57.67;102937.53;1049744;28;663;-64
2022/04/16 03:31:05;;;;;;;;;;;;;;;15.40;57.85;102935.84;1049336;28;728;-63
2022/04/16 03:31:56;;;;;;;;;;;;;;;15.40;57.49;102939.41;1050023;28;634;-63
2022/04/16 03:32:47;;;;;;;;;;;;;;;15.39;57.98;102943.03;1050316;28;704;-63
2022/04/16 03:33:38;;;;;;;;;;;;;;;15.39;57.91;102939.47;1050353;28;1977;-63
2022/04/16 03:34:28;;;;;;;;;;;;;;;15.39;57.59;102940.34;1050381;28;652;-63
2022/04/16 03:35:19;;;;;;;;;;;;;;;15.39;57.87;102943.03;1049688;28;724;-63
2022/04/16 03:36:09;;;;;;;;;;;;;;;15.36;58.07;102935.13;1049712;28;659;-63
2022/04/16 03:37:00;;;;;;;;;;;;;;;15.36;58.10;102942.31;1048693;28;760;-63
2022/04/16 03:37:50;;;;;;;;;;;;;;;15.38;57.92;102945.78;1049995;28;668;-63
2022/04/16 03:38:41;;;;;;;;;;;;;;;15.37;57.83;102942.22;1047314;28;725;-63
2022/04/16 03:39:31;;;;;;;;;;;;;;;15.37;58.00;102939.53;1049287;28;1752;-63
2022/04/16 03:40:24;;;;;;;;;;;;;;;15.37;57.98;102949.41;1050312;28;685;-62
2022/04/16 03:41:14;;;;;;;;;;;;;;;15.36;57.62;102943.19;1050123;28;1531;-62
2022/04/16 03:42:05;;;;;;;;;;;;;;;15.36;57.96;102943.19;1046754;28;841;-62
2022/04/16 03:43:01;;;;;;;;;;;;;;;15.36;57.94;102945.00;1046197;28;681;-63
2022/04/16 03:43:51;;;;;;;;;;;;;;;15.35;57.74;102943.25;1046696;28;752;-63
2022/04/16 03:44:42;;;;;;;;;;;;;;;15.36;57.75;102945.00;1045664;28;634;-62
2022/04/16 03:45:32;;;;;;;;;;;;;;;15.36;57.52;102943.19;1046649;28;597;-60
2022/04/16 03:46:23;;;;;;;;;;;;;;;15.35;57.42;102946.81;1046779;28;957;-61
2022/04/16 03:47:13;;;;;;;;;;;;;;;15.34;57.84;102953.13;1050069;28;658;-62
2022/04/16 03:48:04;;;;;;;;;;;;;;;15.35;57.70;102941.44;1049944;28;652;-62
2022/04/16 03:48:54;;;;;;;;;;;;;;;15.34;57.74;102941.50;1046961;28;656;-63
2022/04/16 03:49:44;;;;;;;;;;;;;;;15.35;57.73;102940.56;1046626;28;658;-63
2022/04/16 03:50:35;;;;;;;;;;;;;;;15.33;57.70;102942.47;1047461;28;1348;-63
2022/04/16 03:51:26;;;;;;;;;;;;;;;15.33;57.81;102937.97;1049089;28;669;-63
2022/04/16 03:52:16;;;;;;;;;;;;;;;15.33;57.87;102939.78;1048594;28;846;-63
2022/04/16 03:53:07;;;;;;;;;;;;;;;15.33;57.89;102937.97;1048740;28;708;-63
2022/04/16 03:59:59;;;;;;;;;;;;;;;15.33;57.56;102937.09;1049117;28;625;-63
2022/04/16 04:00:00;;;;;;;;;;;;;;;15.42;57.32;102937.47;1052917;28;1607;-63
2022/04/16 04:00:50;;;;;;;;;;;;;;;15.46;57.22;102943.56;1053476;28;632;-63
2022/04/16 04:01:41;;;;;;;;;;;;;;;15.52;56.87;102938.75;1053633;28;664;-63
2022/04/16 04:02:33;;;;;;;;;;;;;;;15.57;57.20;102944.78;1054380;28;712;-63
2022/04/16 04:03:23;;;;;;;;;;;;;;;15.64;56.26;102950.69;1053866;28;663;-63
2022/04/16 04:04:13;;;;;;;;;;;;;;;15.70;56.75;102946.81;1053781;28;693;-63
2022/04/16 04:05:04;;;;;;;;;;;;;;;15.76;56.99;102941.13;1054316;28;715;-63
2022/04/16 04:05:56;;;;;;;;;;;;;;;15.85;56.35;102946.00;1054047;28;779;-62
2022/04/16 04:06:47;;;;;;;;;;;;;;;15.92;55.85;102942.03;1053987;28;754;-63
2022/04/16 04:07:37;;;;;;;;;;;;;;;15.98;56.25;102945.25;1053981;28;634;-63
2022/04/16 04:08:27;;;;;;;;;;;;;;;16.06;55.50;102943.97;1053792;28;696;-62
2022/04/16 04:09:18;;;;;;;;;;;;;;;16.10;55.36;102949.09;1053847;28;649;-63
2022/04/16 04:10:10;;;;;;;;;;;;;;;16.16;55.11;102950.56;1053789;28;649;-62
2022/04/16 04:11:01;;;;;;;;;;;;;;;16.22;55.13;102951.13;1053933;28;646;-63
2022/04/16 04:11:51;;;;;;;;;;;;;;;16.24;55.46;102951.91;1053795;28;661;-63
2022/04/16 04:12:41;;;;;;;;;;;;;;;16.28;54.91;102952.59;1053691;28;701;-62
2022/04/16 04:13:32;;;;;;;;;;;;;;;16.30;54.73;102959.63;1054228;28;1890;-62
2022/04/16 04:14:22;;;;;;;;;;;;;;;16.32;54.75;102955.03;1054388;27;637;-62
2022/04/16 04:15:13;;;;;;;;;;;;;;;16.33;55.02;102948.69;1053778;28;797;-61
2022/04/16 04:16:03;;;;;;;;;;;;;;;16.33;55.01;102951.38;1053733;28;708;-61
2022/04/16 04:16:53;;;;;;;;;;;;;;;16.33;54.72;102950.50;1054314;28;629;-60
2022/04/16 04:17:44;;;;;;;;;;;;;;;16.34;54.84;102952.25;1053708;28;740;-60
2022/04/16 04:18:34;;;;;;;;;;;;;;;16.33;54.60;102956.75;1053813;28;634;-61
2022/04/16 04:19:25;;;;;;;;;;;;;;;16.33;54.77;102956.75;1053741;28;677;-61
2022/04/16 04:20:15;;;;;;;;;;;;;;;16.32;54.57;102957.72;1054404;28;692;-61
2022/04/16 04:21:05;;;;;;;;;;;;;;;16.30;54.72;102964.16;1053629;28;685;-62
2022/04/16 04:21:56;;;;;;;;;;;;;;;16.28;54.69;102956.16;1053803;28;691;-62
2022/04/16 04:22:46;;;;;;;;;;;;;;;16.24;54.78;102954.59;1053739;28;643;-62
2022/04/16 04:23:37;;;;;;;;;;;;;;;16.22;54.78;102952.94;1053696;28;716;-62
2022/04/16 04:24:27;;;;;;;;;;;;;;;16.22;55.00;102961.00;1054384;28;696;-62
2022/04/16 04:25:18;;;;;;;;;;;;;;;16.21;55.21;102957.44;1053686;28;676;-62
2022/04/16 04:26:08;;;;;;;;;;;;;;;16.21;54.83;102960.13;1053678;28;661;-62
2022/04/16 04:26:59;;;;;;;;;;;;;;;16.19;54.84;102961.16;1054163;28;1136;-62
2022/04/16 04:27:50;;;;;;;;;;;;;;;16.18;55.15;102960.28;1053747;28;670;-62
2022/04/16 04:28:40;;;;;;;;;;;;;;;16.14;55.19;102956.03;1053769;28;702;-61
2022/04/16 04:29:30;;;;;;;;;;;;;;;16.13;55.06;102962.38;1045711;28;646;-61
2022/04/16 04:30:21;;;;;;;;;;;;;;;16.12;54.94;102952.56;1049471;28;731;-61
2022/04/16 04:31:11;;;;;;;;;;;;;;;16.13;55.17;102958.81;1049842;28;740;-61
2022/04/16 04:32:02;;;;;;;;;;;;;;;16.11;55.05;102964.28;1046338;28;726;-61
2022/04/16 04:32:56;;;;;;;;;;;;;;;16.09;54.96;102955.44;1046008;28;692;-61
2022/04/16 04:33:47;;;;;;;;;;;;;;;16.08;55.24;102956.38;1045950;28;719;-66
2022/04/16 04:34:37;;;;;;;;;;;;;;;16.07;55.01;102961.84;1046579;28;641;-62
2022/04/16 04:35:28;;;;;;;;;;;;;;;16.06;54.48;102957.41;1046525;28;661;-63
2022/04/16 04:36:18;;;;;;;;;;;;;;;16.05;55.01;102964.63;1046026;28;645;-62
2022/04/16 04:37:09;;;;;;;;;;;;;;;16.04;55.09;102968.25;1046539;28;664;-63
2022/04/16 04:37:59;;;;;;;;;;;;;;;16.03;55.35;102958.44;1045228;28;794;-63